sensor_id;sensor_type;location;lat;lon;timestamp;P1;durP1;ratioP1;P2;durP2;ratioP2
43986;SDS011;29650;47.378;8.300;2023-08-17T07:54:15;12.35;;;4.65;;
43986;SDS011;29650;47.378;8.300;2023-08-17T07:56:42;6.65;;;4.68;;
43986;SDS011;29650;47.378;8.300;2023-08-17T07:59:10;7.53;;;4.63;;
43986;SDS011;29650;47.378;8.300;2023-08-17T08:01:37;15.02;;;4.95;;
43986;SDS011;29650;47.378;8.300;2023-08-17T08:04:05;6.43;;;4.07;;
43986;SDS011;29650;47.378;8.300;2023-08-17T08:06:32;6.93;;;4.32;;
43986;SDS011;29650;47.378;8.300;2023-08-17T08:08:59;8.35;;;4.05;;
43986;SDS011;29650;47.378;8.300;2023-08-17T08:11:26;8.50;;;4.05;;
43986;SDS011;29650;47.378;8.300;2023-08-17T08:13:55;4.28;;;3.88;;
43986;SDS011;29650;47.378;8.300;2023-08-17T08:16:24;5.20;;;3.40;;
43986;SDS011;29650;47.378;8.300;2023-08-17T08:18:51;10.00;;;3.95;;
43986;SDS011;29650;47.378;8.300;2023-08-17T08:21:18;5.65;;;3.85;;
43986;SDS011;29650;47.378;8.300;2023-08-17T08:23:44;8.27;;;4.43;;
43986;SDS011;29650;47.378;8.300;2023-08-17T08:26:11;12.75;;;4.38;;
43986;SDS011;29650;47.378;8.300;2023-08-17T08:28:38;5.70;;;4.18;;
43986;SDS011;29650;47.378;8.300;2023-08-17T08:31:05;10.30;;;4.10;;
43986;SDS011;29650;47.378;8.300;2023-08-17T08:33:34;7.95;;;3.95;;
43986;SDS011;29650;47.378;8.300;2023-08-17T08:36:01;36.80;;;5.53;;
43986;SDS011;29650;47.378;8.300;2023-08-17T08:38:28;8.30;;;3.95;;
43986;SDS011;29650;47.378;8.300;2023-08-17T08:40:55;6.60;;;4.57;;
43986;SDS011;29650;47.378;8.300;2023-08-17T08:43:22;8.27;;;4.68;;
43986;SDS011;29650;47.378;8.300;2023-08-17T08:45:49;7.38;;;4.20;;
43986;SDS011;29650;47.378;8.300;2023-08-17T08:48:18;6.22;;;3.80;;
43986;SDS011;29650;47.378;8.300;2023-08-17T08:50:46;8.95;;;4.20;;
43986;SDS011;29650;47.378;8.300;2023-08-17T08:53:17;8.13;;;4.07;;
43986;SDS011;29650;47.378;8.300;2023-08-17T08:55:54;7.38;;;3.78;;
43986;SDS011;29650;47.378;8.300;2023-08-17T08:58:23;8.48;;;4.28;;
43986;SDS011;29650;47.378;8.300;2023-08-17T09:00:52;7.68;;;4.30;;
43986;SDS011;29650;47.378;8.300;2023-08-17T09:03:19;6.20;;;3.80;;
43986;SDS011;29650;47.378;8.300;2023-08-17T09:05:49;4.15;;;3.67;;
43986;SDS011;29650;47.378;8.300;2023-08-17T09:08:21;5.63;;;3.35;;
43986;SDS011;29650;47.378;8.300;2023-08-17T09:10:49;16.17;;;4.05;;
43986;SDS011;29650;47.378;8.300;2023-08-17T09:13:16;7.97;;;3.88;;
43986;SDS011;29650;47.378;8.300;2023-08-17T09:15:43;10.75;;;3.50;;
43986;SDS011;29650;47.378;8.300;2023-08-17T09:18:10;7.45;;;4.43;;
43986;SDS011;29650;47.378;8.300;2023-08-17T09:20:37;8.13;;;4.05;;
43986;SDS011;29650;47.378;8.300;2023-08-17T09:23:10;9.87;;;4.03;;
43986;SDS011;29650;47.378;8.300;2023-08-17T09:25:39;8.77;;;3.90;;
43986;SDS011;29650;47.378;8.300;2023-08-17T09:28:07;6.88;;;4.13;;
43986;SDS011;29650;47.378;8.300;2023-08-17T09:33:18;7.22;;;4.22;;
43986;SDS011;29650;47.378;8.300;2023-08-17T09:35:45;8.18;;;4.57;;
43986;SDS011;29650;47.378;8.300;2023-08-17T09:38:13;7.15;;;4.45;;
43986;SDS011;29650;47.378;8.300;2023-08-17T09:40:41;8.67;;;4.33;;
43986;SDS011;29650;47.378;8.300;2023-08-17T09:43:08;6.85;;;4.03;;
43986;SDS011;29650;47.378;8.300;2023-08-17T09:45:35;9.73;;;4.30;;
43986;SDS011;29650;47.378;8.300;2023-08-17T09:48:03;10.32;;;4.80;;
43986;SDS011;29650;47.378;8.300;2023-08-17T09:50:31;5.97;;;4.22;;
43986;SDS011;29650;47.378;8.300;2023-08-17T09:52:58;5.28;;;3.72;;
43986;SDS011;29650;47.378;8.300;2023-08-17T09:55:26;7.20;;;4.18;;
43986;SDS011;29650;47.378;8.300;2023-08-17T09:57:53;7.30;;;4.70;;
43986;SDS011;29650;47.378;8.300;2023-08-17T10:00:21;7.63;;;3.92;;
43986;SDS011;29650;47.378;8.300;2023-08-17T10:02:49;7.35;;;4.13;;
43986;SDS011;29650;47.378;8.300;2023-08-17T10:05:17;7.20;;;4.40;;
43986;SDS011;29650;47.378;8.300;2023-08-17T10:07:46;8.18;;;4.72;;
43986;SDS011;29650;47.378;8.300;2023-08-17T10:10:23;7.95;;;4.80;;
43986;SDS011;29650;47.378;8.300;2023-08-17T10:12:56;10.55;;;4.72;;
43986;SDS011;29650;47.378;8.300;2023-08-17T10:15:29;7.40;;;4.45;;
43986;SDS011;29650;47.378;8.300;2023-08-17T10:18:00;9.63;;;4.32;;
43986;SDS011;29650;47.378;8.300;2023-08-17T10:20:45;10.75;;;4.53;;
43986;SDS011;29650;47.378;8.300;2023-08-17T10:23:25;9.60;;;4.20;;
43986;SDS011;29650;47.378;8.300;2023-08-17T10:25:54;11.73;;;4.40;;
43986;SDS011;29650;47.378;8.300;2023-08-17T10:28:22;7.95;;;4.32;;
43986;SDS011;29650;47.378;8.300;2023-08-17T10:30:50;8.48;;;4.30;;
43986;SDS011;29650;47.378;8.300;2023-08-17T10:33:17;30.17;;;4.63;;
43986;SDS011;29650;47.378;8.300;2023-08-17T10:35:45;7.03;;;4.20;;
43986;SDS011;29650;47.378;8.300;2023-08-17T10:38:13;6.32;;;3.90;;
43986;SDS011;29650;47.378;8.300;2023-08-17T10:40:41;4.65;;;3.90;;
43986;SDS011;29650;47.378;8.300;2023-08-17T10:43:10;7.90;;;4.40;;
43986;SDS011;29650;47.378;8.300;2023-08-17T10:45:37;7.90;;;4.15;;
43986;SDS011;29650;47.378;8.300;2023-08-17T10:51:01;7.70;;;4.20;;
43986;SDS011;29650;47.378;8.300;2023-08-17T10:53:33;4.47;;;3.78;;
43986;SDS011;29650;47.378;8.300;2023-08-17T10:56:04;7.15;;;4.10;;
43986;SDS011;29650;47.378;8.300;2023-08-17T10:58:35;7.27;;;4.23;;
43986;SDS011;29650;47.378;8.300;2023-08-17T11:01:02;6.30;;;4.20;;
43986;SDS011;29650;47.378;8.300;2023-08-17T11:03:29;6.65;;;4.07;;
43986;SDS011;29650;47.378;8.300;2023-08-17T11:05:58;6.50;;;4.65;;
43986;SDS011;29650;47.378;8.300;2023-08-17T11:08:51;11.95;;;4.50;;
43986;SDS011;29650;47.378;8.300;2023-08-17T11:11:20;10.15;;;4.43;;
43986;SDS011;29650;47.378;8.300;2023-08-17T11:13:49;6.00;;;4.23;;
43986;SDS011;29650;47.378;8.300;2023-08-17T11:16:16;7.57;;;4.43;;
43986;SDS011;29650;47.378;8.300;2023-08-17T11:18:45;10.20;;;4.55;;
43986;SDS011;29650;47.378;8.300;2023-08-17T11:21:14;8.65;;;4.72;;
43986;SDS011;29650;47.378;8.300;2023-08-17T11:23:42;6.35;;;4.07;;
43986;SDS011;29650;47.378;8.300;2023-08-17T11:26:09;6.05;;;4.00;;
43986;SDS011;29650;47.378;8.300;2023-08-17T11:28:37;5.82;;;4.15;;
43986;SDS011;29650;47.378;8.300;2023-08-17T11:31:08;6.17;;;4.23;;
43986;SDS011;29650;47.378;8.300;2023-08-17T11:33:36;6.20;;;3.83;;
43986;SDS011;29650;47.378;8.300;2023-08-17T11:36:05;11.38;;;4.10;;
43986;SDS011;29650;47.378;8.300;2023-08-17T11:38:33;4.90;;;3.80;;
43986;SDS011;29650;47.378;8.300;2023-08-17T11:41:02;6.72;;;4.00;;
43986;SDS011;29650;47.378;8.300;2023-08-17T11:43:30;9.43;;;4.43;;
43986;SDS011;29650;47.378;8.300;2023-08-17T11:45:57;5.20;;;3.53;;
43986;SDS011;29650;47.378;8.300;2023-08-17T11:48:25;6.27;;;3.43;;
43986;SDS011;29650;47.378;8.300;2023-08-17T11:50:53;6.15;;;3.53;;
43986;SDS011;29650;47.378;8.300;2023-08-17T11:53:20;7.63;;;3.58;;
43986;SDS011;29650;47.378;8.300;2023-08-17T11:55:47;6.85;;;3.70;;
43986;SDS011;29650;47.378;8.300;2023-08-17T11:58:14;7.45;;;3.60;;
43986;SDS011;29650;47.378;8.300;2023-08-17T12:00:42;8.45;;;3.63;;
43986;SDS011;29650;47.378;8.300;2023-08-17T12:03:12;6.80;;;3.22;;
43986;SDS011;29650;47.378;8.300;2023-08-17T12:05:42;5.43;;;3.08;;
43986;SDS011;29650;47.378;8.300;2023-08-17T12:08:10;4.40;;;2.90;;
43986;SDS011;29650;47.378;8.300;2023-08-17T12:10:38;5.43;;;3.08;;
43986;SDS011;29650;47.378;8.300;2023-08-17T12:13:05;7.13;;;3.30;;
43986;SDS011;29650;47.378;8.300;2023-08-17T12:15:33;7.63;;;3.10;;
43986;SDS011;29650;47.378;8.300;2023-08-17T12:18:01;5.97;;;3.17;;
43986;SDS011;29650;47.378;8.300;2023-08-17T12:20:30;5.47;;;2.90;;
43986;SDS011;29650;47.378;8.300;2023-08-17T12:23:01;6.45;;;3.22;;
43986;SDS011;29650;47.378;8.300;2023-08-17T12:25:29;5.13;;;3.35;;
43986;SDS011;29650;47.378;8.300;2023-08-17T12:27:57;5.77;;;3.13;;
43986;SDS011;29650;47.378;8.300;2023-08-17T12:30:25;6.80;;;3.07;;
43986;SDS011;29650;47.378;8.300;2023-08-17T12:32:54;7.43;;;3.05;;
43986;SDS011;29650;47.378;8.300;2023-08-17T12:35:21;7.18;;;2.85;;
43986;SDS011;29650;47.378;8.300;2023-08-17T12:37:49;5.68;;;3.20;;
43986;SDS011;29650;47.378;8.300;2023-08-17T12:40:18;9.10;;;3.15;;
43986;SDS011;29650;47.378;8.300;2023-08-17T12:42:45;6.40;;;3.20;;
43986;SDS011;29650;47.378;8.300;2023-08-17T12:45:12;8.27;;;3.10;;
43986;SDS011;29650;47.378;8.300;2023-08-17T12:47:39;7.20;;;2.72;;
43986;SDS011;29650;47.378;8.300;2023-08-17T12:50:06;5.18;;;2.88;;
43986;SDS011;29650;47.378;8.300;2023-08-17T12:52:34;5.20;;;2.97;;
43986;SDS011;29650;47.378;8.300;2023-08-17T12:55:01;7.80;;;2.58;;
43986;SDS011;29650;47.378;8.300;2023-08-17T12:57:29;6.70;;;2.73;;
43986;SDS011;29650;47.378;8.300;2023-08-17T12:59:56;8.65;;;2.70;;
43986;SDS011;29650;47.378;8.300;2023-08-17T13:02:23;9.77;;;3.17;;
43986;SDS011;29650;47.378;8.300;2023-08-17T13:04:50;5.22;;;2.92;;
43986;SDS011;29650;47.378;8.300;2023-08-17T13:07:17;4.97;;;2.57;;
43986;SDS011;29650;47.378;8.300;2023-08-17T13:09:43;7.33;;;3.00;;
43986;SDS011;29650;47.378;8.300;2023-08-17T13:12:11;10.07;;;3.37;;
43986;SDS011;29650;47.378;8.300;2023-08-17T13:14:39;11.00;;;3.38;;
43986;SDS011;29650;47.378;8.300;2023-08-17T13:17:06;8.15;;;3.10;;
43986;SDS011;29650;47.378;8.300;2023-08-17T13:19:33;7.97;;;3.07;;
43986;SDS011;29650;47.378;8.300;2023-08-17T13:22:00;6.03;;;2.97;;
43986;SDS011;29650;47.378;8.300;2023-08-17T13:24:29;6.60;;;3.10;;
43986;SDS011;29650;47.378;8.300;2023-08-17T13:26:56;7.13;;;3.08;;
43986;SDS011;29650;47.378;8.300;2023-08-17T13:29:23;7.18;;;2.58;;
43986;SDS011;29650;47.378;8.300;2023-08-17T13:31:51;6.68;;;2.80;;
43986;SDS011;29650;47.378;8.300;2023-08-17T13:34:18;7.18;;;3.20;;
43986;SDS011;29650;47.378;8.300;2023-08-17T13:36:45;9.45;;;3.00;;
43986;SDS011;29650;47.378;8.300;2023-08-17T13:39:12;4.50;;;2.90;;
43986;SDS011;29650;47.378;8.300;2023-08-17T13:41:40;7.38;;;3.20;;
43986;SDS011;29650;47.378;8.300;2023-08-17T13:44:07;7.70;;;2.95;;
43986;SDS011;29650;47.378;8.300;2023-08-17T13:46:34;8.20;;;2.75;;
43986;SDS011;29650;47.378;8.300;2023-08-17T13:49:03;5.73;;;3.17;;
43986;SDS011;29650;47.378;8.300;2023-08-17T13:51:30;8.07;;;2.70;;
43986;SDS011;29650;47.378;8.300;2023-08-17T13:53:57;5.65;;;3.08;;
43986;SDS011;29650;47.378;8.300;2023-08-17T13:56:24;8.20;;;2.97;;
43986;SDS011;29650;47.378;8.300;2023-08-17T13:58:51;9.02;;;2.88;;
43986;SDS011;29650;47.378;8.300;2023-08-17T14:01:18;10.68;;;3.55;;
43986;SDS011;29650;47.378;8.300;2023-08-17T14:03:45;9.23;;;3.17;;
43986;SDS011;29650;47.378;8.300;2023-08-17T14:06:13;8.40;;;2.90;;
43986;SDS011;29650;47.378;8.300;2023-08-17T14:08:40;6.30;;;2.80;;
43986;SDS011;29650;47.378;8.300;2023-08-17T14:11:07;7.50;;;3.33;;
43986;SDS011;29650;47.378;8.300;2023-08-17T14:13:34;5.93;;;2.80;;
43986;SDS011;29650;47.378;8.300;2023-08-17T14:16:01;10.10;;;3.42;;
43986;SDS011;29650;47.378;8.300;2023-08-17T14:18:28;8.75;;;2.95;;
43986;SDS011;29650;47.378;8.300;2023-08-17T14:20:55;7.95;;;3.10;;
43986;SDS011;29650;47.378;8.300;2023-08-17T14:23:24;6.18;;;2.72;;
43986;SDS011;29650;47.378;8.300;2023-08-17T14:25:51;6.57;;;2.80;;
43986;SDS011;29650;47.378;8.300;2023-08-17T14:28:18;5.10;;;3.08;;
43986;SDS011;29650;47.378;8.300;2023-08-17T14:30:45;6.07;;;2.72;;
43986;SDS011;29650;47.378;8.300;2023-08-17T14:33:12;5.65;;;2.83;;
43986;SDS011;29650;47.378;8.300;2023-08-17T14:35:39;7.70;;;2.80;;
43986;SDS011;29650;47.378;8.300;2023-08-17T14:38:06;7.20;;;3.05;;
43986;SDS011;29650;47.378;8.300;2023-08-17T14:40:35;7.78;;;3.00;;
43986;SDS011;29650;47.378;8.300;2023-08-17T14:43:02;8.50;;;2.85;;
43986;SDS011;29650;47.378;8.300;2023-08-17T14:45:29;5.18;;;2.45;;
43986;SDS011;29650;47.378;8.300;2023-08-17T14:47:56;5.90;;;2.60;;
43986;SDS011;29650;47.378;8.300;2023-08-17T14:50:24;6.43;;;2.40;;
43986;SDS011;29650;47.378;8.300;2023-08-17T14:52:51;5.10;;;2.72;;
43986;SDS011;29650;47.378;8.300;2023-08-17T14:55:18;3.75;;;2.33;;
43986;SDS011;29650;47.378;8.300;2023-08-17T14:57:46;4.95;;;2.70;;
43986;SDS011;29650;47.378;8.300;2023-08-17T15:00:13;6.60;;;2.40;;
43986;SDS011;29650;47.378;8.300;2023-08-17T15:02:40;6.30;;;2.55;;
43986;SDS011;29650;47.378;8.300;2023-08-17T15:05:07;9.70;;;2.50;;
43986;SDS011;29650;47.378;8.300;2023-08-17T15:07:34;5.60;;;2.07;;
43986;SDS011;29650;47.378;8.300;2023-08-17T15:10:01;4.07;;;2.10;;
43986;SDS011;29650;47.378;8.300;2023-08-17T15:12:28;3.13;;;2.20;;
43986;SDS011;29650;47.378;8.300;2023-08-17T15:14:56;7.20;;;2.63;;
43986;SDS011;29650;47.378;8.300;2023-08-17T15:17:23;5.50;;;2.27;;
43986;SDS011;29650;47.378;8.300;2023-08-17T15:19:50;5.20;;;2.45;;
43986;SDS011;29650;47.378;8.300;2023-08-17T15:22:17;4.45;;;2.20;;
43986;SDS011;29650;47.378;8.300;2023-08-17T15:24:44;6.93;;;2.33;;
43986;SDS011;29650;47.378;8.300;2023-08-17T15:27:11;6.18;;;2.63;;
43986;SDS011;29650;47.378;8.300;2023-08-17T15:29:39;9.55;;;2.78;;
43986;SDS011;29650;47.378;8.300;2023-08-17T15:32:07;3.43;;;2.57;;
43986;SDS011;29650;47.378;8.300;2023-08-17T15:34:35;4.65;;;2.22;;
43986;SDS011;29650;47.378;8.300;2023-08-17T15:37:02;7.43;;;2.47;;
43986;SDS011;29650;47.378;8.300;2023-08-17T15:39:29;6.35;;;2.13;;
43986;SDS011;29650;47.378;8.300;2023-08-17T15:41:56;7.72;;;2.47;;
43986;SDS011;29650;47.378;8.300;2023-08-17T15:44:23;5.10;;;2.53;;
43986;SDS011;29650;47.378;8.300;2023-08-17T15:46:50;3.85;;;2.00;;
43986;SDS011;29650;47.378;8.300;2023-08-17T15:49:19;8.60;;;2.60;;
43986;SDS011;29650;47.378;8.300;2023-08-17T15:51:46;6.80;;;2.63;;
43986;SDS011;29650;47.378;8.300;2023-08-17T15:54:13;5.32;;;2.25;;
43986;SDS011;29650;47.378;8.300;2023-08-17T15:56:40;7.85;;;2.20;;
43986;SDS011;29650;47.378;8.300;2023-08-17T15:59:07;5.55;;;2.25;;
43986;SDS011;29650;47.378;8.300;2023-08-17T16:01:34;5.88;;;2.45;;
43986;SDS011;29650;47.378;8.300;2023-08-17T16:04:00;8.57;;;2.30;;
43986;SDS011;29650;47.378;8.300;2023-08-17T16:06:29;4.90;;;2.28;;
43986;SDS011;29650;47.378;8.300;2023-08-17T16:08:56;7.75;;;2.40;;
43986;SDS011;29650;47.378;8.300;2023-08-17T16:11:22;9.07;;;2.45;;
43986;SDS011;29650;47.378;8.300;2023-08-17T16:13:50;8.55;;;2.22;;
43986;SDS011;29650;47.378;8.300;2023-08-17T16:16:17;9.20;;;2.20;;
43986;SDS011;29650;47.378;8.300;2023-08-17T16:18:44;6.43;;;2.30;;
43986;SDS011;29650;47.378;8.300;2023-08-17T16:21:10;6.97;;;2.30;;
43986;SDS011;29650;47.378;8.300;2023-08-17T16:23:39;7.90;;;2.55;;
43986;SDS011;29650;47.378;8.300;2023-08-17T16:26:07;7.70;;;2.40;;
43986;SDS011;29650;47.378;8.300;2023-08-17T16:28:34;5.55;;;2.40;;
43986;SDS011;29650;47.378;8.300;2023-08-17T16:31:01;6.85;;;2.40;;
43986;SDS011;29650;47.378;8.300;2023-08-17T16:33:28;5.75;;;2.35;;
43986;SDS011;29650;47.378;8.300;2023-08-17T16:35:55;5.78;;;2.40;;
43986;SDS011;29650;47.378;8.300;2023-08-17T16:38:22;7.57;;;2.40;;
43986;SDS011;29650;47.378;8.300;2023-08-17T16:40:50;8.60;;;2.60;;
43986;SDS011;29650;47.378;8.300;2023-08-17T16:43:17;6.43;;;2.70;;
43986;SDS011;29650;47.378;8.300;2023-08-17T16:45:45;9.73;;;2.83;;
43986;SDS011;29650;47.378;8.300;2023-08-17T16:48:11;6.22;;;2.35;;
43986;SDS011;29650;47.378;8.300;2023-08-17T16:50:38;8.47;;;2.67;;
43986;SDS011;29650;47.378;8.300;2023-08-17T16:53:05;10.48;;;2.55;;
43986;SDS011;29650;47.378;8.300;2023-08-17T16:55:32;9.20;;;2.22;;
43986;SDS011;29650;47.378;8.300;2023-08-17T16:58:00;6.13;;;2.47;;
43986;SDS011;29650;47.378;8.300;2023-08-17T17:00:28;8.88;;;2.20;;
43986;SDS011;29650;47.378;8.300;2023-08-17T17:02:55;7.57;;;1.80;;
43986;SDS011;29650;47.378;8.300;2023-08-17T17:05:22;6.18;;;1.98;;
43986;SDS011;29650;47.378;8.300;2023-08-17T17:07:49;4.70;;;1.98;;
43986;SDS011;29650;47.378;8.300;2023-08-17T17:10:16;9.68;;;2.10;;
43986;SDS011;29650;47.378;8.300;2023-08-17T17:12:44;7.38;;;2.35;;
43986;SDS011;29650;47.378;8.300;2023-08-17T17:15:13;7.22;;;2.10;;
43986;SDS011;29650;47.378;8.300;2023-08-17T17:17:40;4.80;;;1.90;;
43986;SDS011;29650;47.378;8.300;2023-08-17T17:20:07;5.20;;;1.88;;
43986;SDS011;29650;47.378;8.300;2023-08-17T17:22:36;6.00;;;1.80;;
43986;SDS011;29650;47.378;8.300;2023-08-17T17:25:03;5.00;;;1.87;;
43986;SDS011;29650;47.378;8.300;2023-08-17T17:27:30;5.57;;;1.88;;
43986;SDS011;29650;47.378;8.300;2023-08-17T17:29:57;4.45;;;1.80;;
43986;SDS011;29650;47.378;8.300;2023-08-17T17:32:25;6.63;;;1.97;;
43986;SDS011;29650;47.378;8.300;2023-08-17T17:34:52;6.13;;;1.67;;
43986;SDS011;29650;47.378;8.300;2023-08-17T17:37:19;5.95;;;1.60;;
43986;SDS011;29650;47.378;8.300;2023-08-17T17:39:46;4.45;;;1.58;;
43986;SDS011;29650;47.378;8.300;2023-08-17T17:42:13;4.60;;;1.80;;
43986;SDS011;29650;47.378;8.300;2023-08-17T17:44:40;8.82;;;1.98;;
43986;SDS011;29650;47.378;8.300;2023-08-17T17:47:07;6.90;;;1.60;;
43986;SDS011;29650;47.378;8.300;2023-08-17T17:49:35;7.72;;;1.70;;
43986;SDS011;29650;47.378;8.300;2023-08-17T17:52:02;6.45;;;1.88;;
43986;SDS011;29650;47.378;8.300;2023-08-17T17:54:29;7.32;;;1.60;;
43986;SDS011;29650;47.378;8.300;2023-08-17T17:56:57;5.73;;;1.57;;
43986;SDS011;29650;47.378;8.300;2023-08-17T17:59:24;8.20;;;1.80;;
43986;SDS011;29650;47.378;8.300;2023-08-17T18:01:51;6.95;;;1.95;;
43986;SDS011;29650;47.378;8.300;2023-08-17T18:04:18;6.35;;;1.70;;
43986;SDS011;29650;47.378;8.300;2023-08-17T18:06:46;7.13;;;1.95;;
43986;SDS011;29650;47.378;8.300;2023-08-17T18:09:13;8.25;;;1.80;;
43986;SDS011;29650;47.378;8.300;2023-08-17T18:11:40;7.45;;;1.90;;
43986;SDS011;29650;47.378;8.300;2023-08-17T18:14:07;4.25;;;1.67;;
43986;SDS011;29650;47.378;8.300;2023-08-17T18:16:34;6.18;;;2.00;;
43986;SDS011;29650;47.378;8.300;2023-08-17T18:19:01;5.68;;;1.67;;
43986;SDS011;29650;47.378;8.300;2023-08-17T18:21:28;5.93;;;1.60;;
43986;SDS011;29650;47.378;8.300;2023-08-17T18:24:00;8.48;;;1.75;;
43986;SDS011;29650;47.378;8.300;2023-08-17T18:26:27;5.13;;;1.80;;
43986;SDS011;29650;47.378;8.300;2023-08-17T18:28:54;4.28;;;1.70;;
43986;SDS011;29650;47.378;8.300;2023-08-17T18:31:21;6.05;;;2.22;;
43986;SDS011;29650;47.378;8.300;2023-08-17T18:33:48;6.55;;;2.00;;
43986;SDS011;29650;47.378;8.300;2023-08-17T18:36:15;8.13;;;1.80;;
43986;SDS011;29650;47.378;8.300;2023-08-17T18:38:42;7.60;;;1.90;;
43986;SDS011;29650;47.378;8.300;2023-08-17T18:41:10;5.50;;;1.80;;
43986;SDS011;29650;47.378;8.300;2023-08-17T18:43:38;6.38;;;1.65;;
43986;SDS011;29650;47.378;8.300;2023-08-17T18:46:05;5.63;;;1.80;;
43986;SDS011;29650;47.378;8.300;2023-08-17T18:48:32;5.55;;;1.50;;
43986;SDS011;29650;47.378;8.300;2023-08-17T18:50:59;6.60;;;1.95;;
43986;SDS011;29650;47.378;8.300;2023-08-17T18:53:26;3.60;;;1.40;;
43986;SDS011;29650;47.378;8.300;2023-08-17T18:55:53;5.78;;;1.55;;
43986;SDS011;29650;47.378;8.300;2023-08-17T18:58:21;2.85;;;1.50;;
43986;SDS011;29650;47.378;8.300;2023-08-17T19:00:49;4.00;;;1.52;;
43986;SDS011;29650;47.378;8.300;2023-08-17T19:03:16;6.32;;;1.40;;
43986;SDS011;29650;47.378;8.300;2023-08-17T19:05:44;5.82;;;1.20;;
43986;SDS011;29650;47.378;8.300;2023-08-17T19:08:11;2.67;;;1.17;;
43986;SDS011;29650;47.378;8.300;2023-08-17T19:10:38;4.85;;;1.30;;
43986;SDS011;29650;47.378;8.300;2023-08-17T19:13:05;3.50;;;1.23;;
43986;SDS011;29650;47.378;8.300;2023-08-17T19:15:33;2.80;;;1.00;;
43986;SDS011;29650;47.378;8.300;2023-08-17T19:18:00;3.15;;;1.25;;
43986;SDS011;29650;47.378;8.300;2023-08-17T19:20:27;5.63;;;1.63;;
43986;SDS011;29650;47.378;8.300;2023-08-17T19:22:54;4.55;;;1.20;;
43986;SDS011;29650;47.378;8.300;2023-08-17T19:25:21;5.50;;;2.65;;
43986;SDS011;29650;47.378;8.300;2023-08-17T19:27:48;7.28;;;1.60;;
43986;SDS011;29650;47.378;8.300;2023-08-17T19:30:15;3.08;;;1.30;;
43986;SDS011;29650;47.378;8.300;2023-08-17T19:32:44;5.78;;;1.40;;
43986;SDS011;29650;47.378;8.300;2023-08-17T19:35:11;3.55;;;1.40;;
43986;SDS011;29650;47.378;8.300;2023-08-17T19:37:38;4.25;;;1.60;;
43986;SDS011;29650;47.378;8.300;2023-08-17T19:40:05;4.55;;;1.45;;
43986;SDS011;29650;47.378;8.300;2023-08-17T19:42:34;2.67;;;1.20;;
43986;SDS011;29650;47.378;8.300;2023-08-17T19:45:00;5.10;;;1.42;;
43986;SDS011;29650;47.378;8.300;2023-08-17T19:47:28;4.80;;;1.80;;
43986;SDS011;29650;47.378;8.300;2023-08-17T19:49:56;6.22;;;1.98;;
43986;SDS011;29650;47.378;8.300;2023-08-17T19:52:23;4.63;;;1.38;;
43986;SDS011;29650;47.378;8.300;2023-08-17T19:54:50;3.53;;;1.30;;
43986;SDS011;29650;47.378;8.300;2023-08-17T19:57:17;1.50;;;1.30;;
43986;SDS011;29650;47.378;8.300;2023-08-17T19:59:44;4.28;;;1.38;;
43986;SDS011;29650;47.378;8.300;2023-08-17T20:02:12;3.15;;;1.40;;
43986;SDS011;29650;47.378;8.300;2023-08-17T20:04:38;4.03;;;1.33;;
43986;SDS011;29650;47.378;8.300;2023-08-17T20:07:07;5.38;;;1.38;;
43986;SDS011;29650;47.378;8.300;2023-08-17T20:09:34;5.90;;;1.55;;
43986;SDS011;29650;47.378;8.300;2023-08-17T20:12:01;6.35;;;1.60;;
43986;SDS011;29650;47.378;8.300;2023-08-17T20:19:22;4.63;;;1.38;;
43986;SDS011;29650;47.378;8.300;2023-08-17T20:24:17;4.80;;;1.48;;
43986;SDS011;29650;47.378;8.300;2023-08-17T20:26:45;7.23;;;1.63;;
43986;SDS011;29650;47.378;8.300;2023-08-17T20:29:12;4.22;;;1.33;;
43986;SDS011;29650;47.378;8.300;2023-08-17T20:31:39;6.05;;;1.42;;
43986;SDS011;29650;47.378;8.300;2023-08-17T20:34:06;5.93;;;1.73;;
43986;SDS011;29650;47.378;8.300;2023-08-17T20:36:33;5.65;;;1.60;;
43986;SDS011;29650;47.378;8.300;2023-08-17T20:39:04;4.68;;;1.75;;
43986;SDS011;29650;47.378;8.300;2023-08-17T20:41:34;3.78;;;1.80;;
43986;SDS011;29650;47.378;8.300;2023-08-17T20:44:01;6.47;;;1.80;;
43986;SDS011;29650;47.378;8.300;2023-08-17T20:46:29;4.35;;;1.58;;
43986;SDS011;29650;47.378;8.300;2023-08-17T20:48:56;5.95;;;2.17;;
43986;SDS011;29650;47.378;8.300;2023-08-17T20:51:23;7.03;;;1.90;;
43986;SDS011;29650;47.378;8.300;2023-08-17T20:53:50;5.40;;;1.98;;
43986;SDS011;29650;47.378;8.300;2023-08-17T20:56:18;6.45;;;1.90;;
43986;SDS011;29650;47.378;8.300;2023-08-17T20:58:46;7.40;;;1.92;;
43986;SDS011;29650;47.378;8.300;2023-08-17T21:01:13;4.90;;;1.70;;
43986;SDS011;29650;47.378;8.300;2023-08-17T21:03:41;4.13;;;1.55;;
43986;SDS011;29650;47.378;8.300;2023-08-17T21:06:08;3.53;;;1.50;;
43986;SDS011;29650;47.378;8.300;2023-08-17T21:08:36;4.65;;;1.50;;
43986;SDS011;29650;47.378;8.300;2023-08-17T21:11:03;4.75;;;1.80;;
43986;SDS011;29650;47.378;8.300;2023-08-17T21:13:30;6.90;;;1.63;;
43986;SDS011;29650;47.378;8.300;2023-08-17T21:16:03;5.37;;;1.80;;
43986;SDS011;29650;47.378;8.300;2023-08-17T21:18:31;4.82;;;1.58;;
43986;SDS011;29650;47.378;8.300;2023-08-17T21:20:58;6.25;;;1.63;;
43986;SDS011;29650;47.378;8.300;2023-08-17T21:23:25;5.05;;;2.00;;
43986;SDS011;29650;47.378;8.300;2023-08-17T21:25:55;6.53;;;1.45;;
43986;SDS011;29650;47.378;8.300;2023-08-17T21:28:24;3.57;;;1.63;;
43986;SDS011;29650;47.378;8.300;2023-08-17T21:30:51;4.22;;;1.38;;
43986;SDS011;29650;47.378;8.300;2023-08-17T21:33:19;3.70;;;1.33;;
43986;SDS011;29650;47.378;8.300;2023-08-17T21:35:46;4.18;;;1.67;;
43986;SDS011;29650;47.378;8.300;2023-08-17T21:38:13;3.30;;;1.50;;
43986;SDS011;29650;47.378;8.300;2023-08-17T21:40:40;4.82;;;1.60;;
43986;SDS011;29650;47.378;8.300;2023-08-17T21:43:06;5.68;;;1.67;;
43986;SDS011;29650;47.378;8.300;2023-08-17T21:45:33;6.47;;;1.77;;
43986;SDS011;29650;47.378;8.300;2023-08-17T21:48:00;3.73;;;1.70;;
43986;SDS011;29650;47.378;8.300;2023-08-17T21:50:29;4.00;;;1.60;;
43986;SDS011;29650;47.378;8.300;2023-08-17T21:52:55;4.97;;;1.60;;
43986;SDS011;29650;47.378;8.300;2023-08-17T21:55:23;2.30;;;1.30;;
43986;SDS011;29650;47.378;8.300;2023-08-17T21:57:50;5.78;;;1.70;;
43986;SDS011;29650;47.378;8.300;2023-08-17T22:00:17;4.45;;;1.60;;
43986;SDS011;29650;47.378;8.300;2023-08-17T22:02:44;4.10;;;1.40;;
43986;SDS011;29650;47.378;8.300;2023-08-17T22:05:11;5.00;;;1.67;;
43986;SDS011;29650;47.378;8.300;2023-08-17T22:07:39;6.22;;;1.90;;
43986;SDS011;29650;47.378;8.300;2023-08-17T22:10:06;7.28;;;1.95;;
43986;SDS011;29650;47.378;8.300;2023-08-17T22:12:34;4.35;;;1.98;;
43986;SDS011;29650;47.378;8.300;2023-08-17T22:15:01;3.22;;;1.60;;
43986;SDS011;29650;47.378;8.300;2023-08-17T22:17:28;4.90;;;1.60;;
43986;SDS011;29650;47.378;8.300;2023-08-17T22:19:54;4.45;;;1.80;;
43986;SDS011;29650;47.378;8.300;2023-08-17T22:22:21;5.13;;;1.63;;
43986;SDS011;29650;47.378;8.300;2023-08-17T22:24:49;5.78;;;1.80;;
43986;SDS011;29650;47.378;8.300;2023-08-17T22:27:16;4.15;;;1.92;;
43986;SDS011;29650;47.378;8.300;2023-08-17T22:29:43;3.92;;;1.50;;
43986;SDS011;29650;47.378;8.300;2023-08-17T22:32:10;4.07;;;1.60;;
43986;SDS011;29650;47.378;8.300;2023-08-17T22:34:37;5.70;;;1.90;;
43986;SDS011;29650;47.378;8.300;2023-08-17T22:37:04;3.78;;;1.50;;
43986;SDS011;29650;47.378;8.300;2023-08-17T22:39:31;5.53;;;1.80;;
43986;SDS011;29650;47.378;8.300;2023-08-17T22:41:59;6.68;;;1.90;;
43986;SDS011;29650;47.378;8.300;2023-08-17T22:44:26;4.73;;;1.67;;
43986;SDS011;29650;47.378;8.300;2023-08-17T22:46:53;5.20;;;1.70;;
43986;SDS011;29650;47.378;8.300;2023-08-17T22:49:21;3.70;;;1.67;;
43986;SDS011;29650;47.378;8.300;2023-08-17T22:51:48;4.72;;;1.73;;
43986;SDS011;29650;47.378;8.300;2023-08-17T22:54:15;4.63;;;1.65;;
43986;SDS011;29650;47.378;8.300;2023-08-17T22:56:42;5.03;;;1.52;;